createdAt,value
2018-12-18T00:00:45.720Z,97.79
2018-12-18T00:03:11.668Z,97.53
2018-12-18T00:05:37.500Z,97.56
2018-12-18T00:08:03.623Z,96.83
2018-12-18T00:10:35.646Z,97.45
2018-12-18T00:13:01.531Z,96.64
2018-12-18T00:15:27.396Z,97.04
2018-12-18T00:17:53.316Z,97.26
2018-12-18T00:20:19.193Z,97.12
2018-12-18T00:22:45.035Z,97.81
2018-12-18T00:25:10.948Z,97.65
2018-12-18T00:27:36.821Z,98.03
2018-12-18T00:30:03.827Z,97.45
2018-12-18T00:32:29.738Z,97.50
2018-12-18T00:34:55.583Z,97.50
2018-12-18T00:37:21.455Z,97.39
2018-12-18T00:39:47.600Z,97.48
2018-12-18T00:42:13.476Z,97.72
2018-12-18T00:44:39.431Z,97.33
2018-12-18T00:47:05.328Z,96.67
2018-12-18T00:49:31.206Z,96.10
2018-12-18T00:51:57.110Z,96.48
2018-12-18T00:54:23.101Z,96.17
2018-12-18T00:56:49.006Z,96.45
2018-12-18T00:59:14.915Z,97.08
2018-12-18T01:01:42.841Z,97.47
2018-12-18T01:04:08.754Z,97.88
2018-12-18T01:06:34.617Z,97.55
2018-12-18T01:09:00.616Z,96.94
2018-12-18T01:11:27.688Z,97.79
2018-12-18T01:13:53.582Z,97.25
2018-12-18T01:16:19.440Z,96.92
2018-12-18T01:18:45.431Z,97.07
2018-12-18T01:21:11.322Z,97.20
2018-12-18T01:23:43.612Z,96.89
2018-12-18T01:26:09.592Z,96.33
2018-12-18T01:28:35.527Z,96.59
2018-12-18T01:31:01.434Z,96.58
2018-12-18T01:33:28.938Z,96.78
2018-12-18T01:35:54.863Z,96.06
2018-12-18T01:38:24.013Z,96.52
2018-12-18T01:40:49.940Z,96.74
2018-12-18T01:43:22.216Z,96.54
2018-12-18T01:45:48.129Z,96.49
2018-12-18T01:48:14.047Z,96.29
2018-12-18T01:50:40.170Z,96.11
2018-12-18T01:53:06.074Z,97.04
2018-12-18T01:55:31.976Z,95.99
2018-12-18T01:57:58.552Z,95.96
2018-12-18T02:00:24.647Z,96.40
2018-12-18T02:02:50.574Z,95.89
2018-12-18T02:05:19.578Z,96.30
2018-12-18T02:07:45.512Z,96.02
2018-12-18T02:10:14.293Z,96.28
2018-12-18T02:12:40.167Z,96.08
2018-12-18T02:15:10.021Z,95.66
2018-12-18T02:17:35.984Z,96.60
2018-12-18T02:20:05.966Z,97.51
2018-12-18T02:22:31.919Z,97.92
2018-12-18T02:24:58.095Z,97.68
2018-12-18T02:27:23.999Z,98.06
2018-12-18T02:29:50.014Z,96.88
2018-12-18T02:32:15.879Z,96.22
2018-12-18T02:34:41.793Z,96.37
2018-12-18T02:37:11.598Z,95.68
2018-12-18T02:39:37.464Z,95.66
2018-12-18T02:42:06.507Z,95.12
2018-12-18T02:44:32.409Z,95.83
2018-12-18T02:46:59.227Z,95.40
2018-12-18T02:49:25.134Z,96.23
2018-12-18T02:51:53.822Z,97.08
2018-12-18T02:54:19.701Z,96.87
2018-12-18T02:59:16.644Z,97.16
2018-12-18T03:01:43.622Z,97.26
2018-12-18T03:04:09.518Z,96.83
2018-12-18T03:06:35.429Z,96.83
2018-12-18T03:09:01.446Z,96.56
2018-12-18T03:11:27.324Z,96.04
2018-12-18T03:13:56.397Z,96.16
2018-12-18T03:16:22.443Z,96.61
2018-12-18T03:18:50.230Z,96.64
2018-12-18T03:21:16.271Z,96.81
2018-12-18T03:23:46.037Z,96.98
2018-12-18T03:26:11.936Z,97.33
2018-12-18T03:28:39.691Z,97.51
2018-12-18T03:31:05.601Z,97.42
2018-12-18T03:33:34.369Z,97.88
2018-12-18T03:36:00.297Z,98.71
2018-12-18T03:38:29.223Z,99.40
2018-12-18T03:40:55.165Z,99.75
2018-12-18T03:43:21.103Z,100.00
2018-12-18T03:45:46.980Z,100.00
2018-12-18T03:48:12.873Z,100.00
2018-12-18T03:50:40.548Z,100.00
2018-12-18T03:53:06.472Z,100.00
2018-12-18T03:55:35.135Z,100.00
2018-12-18T03:58:01.270Z,100.00
2018-12-18T04:00:29.803Z,100.00
2018-12-18T04:02:55.813Z,100.00
2018-12-18T04:05:25.207Z,100.00
2018-12-18T04:07:51.089Z,100.00
2018-12-18T04:10:20.302Z,99.88
2018-12-18T04:12:46.259Z,100.00
2018-12-18T04:15:14.135Z,99.88
2018-12-18T04:17:40.000Z,99.92
2018-12-18T04:20:05.934Z,99.24
2018-12-18T04:22:31.852Z,100.00
2018-12-18T04:24:57.792Z,99.93
2018-12-18T04:27:27.131Z,99.95
2018-12-18T04:29:53.044Z,100.00
2018-12-18T04:32:20.927Z,100.00
2018-12-18T04:34:46.848Z,100.00
2018-12-18T04:37:15.878Z,100.00
2018-12-18T04:39:41.749Z,100.00
2018-12-18T04:42:11.182Z,99.97
2018-12-18T04:44:37.127Z,100.00
2018-12-18T04:47:04.879Z,100.00
2018-12-18T04:49:31.091Z,99.91
2018-12-18T04:52:00.641Z,99.16
2018-12-18T04:54:26.539Z,98.81
2018-12-18T04:56:52.398Z,98.85
2018-12-18T04:59:18.349Z,98.22
2018-12-18T05:01:44.196Z,98.03
2018-12-18T05:04:11.380Z,97.07
2018-12-18T05:06:37.280Z,97.08
2018-12-18T05:09:06.282Z,96.45
2018-12-18T05:11:32.132Z,96.48
2018-12-18T05:14:00.461Z,96.50
2018-12-18T05:16:26.343Z,96.36
2018-12-18T05:18:55.474Z,96.27
2018-12-18T05:21:21.336Z,96.33
2018-12-18T05:23:50.160Z,95.86
2018-12-18T05:26:16.080Z,95.69
2018-12-18T05:28:44.819Z,95.78
2018-12-18T05:31:10.722Z,95.92
2018-12-18T05:33:36.587Z,96.16
2018-12-18T05:36:02.545Z,95.42
2018-12-18T05:38:28.439Z,95.57
2018-12-18T05:40:58.123Z,95.62
2018-12-18T05:43:24.048Z,95.72
2018-12-18T05:45:53.083Z,96.94
2018-12-18T05:48:18.966Z,97.04
2018-12-18T05:50:45.876Z,96.85
2018-12-18T05:53:11.824Z,96.60
2018-12-18T05:55:40.283Z,96.45
2018-12-18T05:58:07.242Z,96.00
2018-12-18T06:00:35.127Z,95.78
2018-12-18T06:03:01.022Z,95.37
2018-12-18T06:05:30.146Z,96.08
2018-12-18T06:07:56.103Z,96.59
2018-12-18T06:10:21.980Z,97.11
2018-12-18T06:12:47.904Z,96.68
2018-12-18T06:15:13.817Z,97.06
2018-12-18T06:17:43.479Z,97.30
2018-12-18T06:20:10.032Z,97.63
2018-12-18T06:22:37.432Z,97.25
2018-12-18T06:25:03.499Z,97.22
2018-12-18T06:27:33.069Z,96.49
2018-12-18T06:29:58.997Z,96.46
2018-12-18T06:32:26.572Z,97.12
2018-12-18T06:34:52.477Z,97.01
2018-12-18T06:37:22.290Z,97.29
2018-12-18T06:39:48.186Z,97.24
2018-12-18T06:42:15.229Z,96.76
2018-12-18T06:44:41.089Z,96.40
2018-12-18T06:47:07.075Z,95.60
2018-12-18T06:49:32.990Z,95.42
2018-12-18T06:51:58.997Z,95.35
2018-12-18T06:54:28.238Z,95.09
2018-12-18T06:56:54.085Z,95.04
2018-12-18T06:59:22.901Z,94.99
2018-12-18T07:01:48.967Z,94.93
2018-12-18T07:04:16.778Z,95.05
2018-12-18T07:06:42.694Z,94.96
2018-12-18T07:09:12.516Z,95.05
2018-12-18T07:11:38.368Z,95.22
2018-12-18T07:14:07.295Z,94.90
2018-12-18T07:16:33.629Z,94.93
2018-12-18T07:19:01.040Z,94.24
2018-12-18T07:21:26.964Z,93.31
2018-12-18T07:23:52.953Z,93.16
2018-12-18T07:26:18.876Z,93.50
2018-12-18T07:28:44.875Z,93.49
2018-12-18T07:31:13.880Z,93.27
2018-12-18T07:33:39.719Z,93.17
2018-12-18T07:36:08.765Z,93.47
2018-12-18T07:38:34.684Z,93.35
2018-12-18T07:41:02.941Z,93.33
2018-12-18T07:43:28.762Z,93.23
2018-12-18T07:45:58.360Z,93.53
2018-12-18T07:48:24.242Z,94.15
2018-12-18T07:50:52.018Z,93.79
2018-12-18T07:53:18.036Z,89.23
2018-12-18T07:55:45.806Z,83.35
2018-12-18T07:58:11.962Z,76.64
2018-12-18T08:00:37.945Z,72.83
2018-12-18T08:03:04.114Z,72.29
2018-12-18T08:05:30.202Z,74.56
2018-12-18T08:08:02.594Z,76.37
2018-12-18T08:10:28.459Z,77.92
2018-12-18T08:12:54.315Z,78.21
2018-12-18T08:15:20.192Z,78.29
2018-12-18T08:17:47.207Z,75.64
2018-12-18T08:20:13.090Z,74.58
2018-12-18T08:22:42.775Z,70.43
2018-12-18T08:25:08.756Z,65.58
2018-12-18T08:27:37.734Z,62.03
2018-12-18T08:30:06.493Z,60.90
2018-12-18T08:32:32.545Z,58.34
2018-12-18T08:34:58.455Z,55.82
2018-12-18T08:37:24.352Z,54.29
2018-12-18T08:39:50.295Z,52.92
2018-12-18T08:42:16.189Z,53.24
2018-12-18T08:44:43.845Z,51.90
2018-12-18T08:47:09.784Z,50.29
2018-12-18T08:49:39.185Z,50.72
2018-12-18T08:52:05.076Z,48.28
2018-12-18T08:54:32.528Z,45.22
2018-12-18T08:56:58.438Z,46.66
2018-12-18T08:59:28.216Z,47.40
2018-12-18T09:01:54.175Z,47.23
2018-12-18T09:04:23.049Z,48.42
2018-12-18T09:06:49.338Z,48.66
2018-12-18T09:09:16.977Z,48.64
2018-12-18T09:11:42.905Z,48.50
2018-12-18T09:14:08.779Z,47.46
2018-12-18T09:16:41.117Z,47.79
2018-12-18T09:19:06.979Z,48.19
2018-12-18T09:21:32.853Z,48.57
2018-12-18T09:23:58.785Z,46.27
2018-12-18T09:26:24.973Z,48.19
2018-12-18T09:28:50.885Z,49.73
2018-12-18T09:31:18.072Z,51.29
2018-12-18T09:33:43.982Z,50.84
2018-12-18T09:36:13.984Z,52.12
2018-12-18T09:38:46.048Z,53.14
2018-12-18T09:41:28.979Z,53.28
2018-12-18T09:43:57.898Z,53.96
2018-12-18T09:46:23.762Z,55.66
2018-12-18T09:48:49.664Z,56.78
2018-12-18T09:51:15.556Z,55.90
2018-12-18T09:53:41.469Z,55.80
2018-12-18T09:56:07.375Z,55.25
2018-12-18T09:58:33.315Z,54.03
2018-12-18T10:00:59.180Z,52.82
2018-12-18T10:03:25.082Z,52.17
2018-12-18T10:05:56.254Z,53.97
2018-12-18T10:08:18.859Z,56.01
2018-12-18T10:10:44.769Z,58.23
2018-12-18T10:13:10.676Z,59.10
2018-12-18T10:15:36.575Z,58.99
2018-12-18T10:18:02.481Z,60.68
2018-12-18T10:20:28.383Z,60.76
2018-12-18T10:22:54.241Z,60.97
2018-12-18T10:25:20.155Z,59.59
2018-12-18T10:27:46.069Z,60.65
2018-12-18T10:30:11.995Z,60.21
2018-12-18T10:32:37.886Z,61.15
2018-12-18T10:35:05.087Z,61.93
2018-12-18T10:37:31.206Z,63.93
2018-12-18T10:39:57.085Z,63.05
2018-12-18T10:42:22.982Z,66.00
2018-12-18T10:44:48.868Z,63.59
2018-12-18T10:47:14.784Z,63.42
2018-12-18T10:49:44.305Z,62.82
2018-12-18T10:52:10.178Z,62.90
2018-12-18T10:54:38.092Z,62.92
2018-12-18T10:57:03.956Z,61.34
2018-12-18T10:59:34.143Z,61.43
2018-12-18T11:02:02.038Z,61.83
2018-12-18T11:04:27.966Z,62.90
2018-12-18T11:06:53.804Z,63.09
2018-12-18T11:09:19.675Z,63.91
2018-12-18T11:11:45.535Z,64.53
2018-12-18T11:14:11.514Z,63.66
2018-12-18T11:16:40.604Z,65.32
2018-12-18T11:19:06.468Z,65.02
2018-12-18T11:21:34.423Z,66.33
2018-12-18T11:24:00.411Z,65.86
2018-12-18T11:26:28.264Z,67.13
2018-12-18T11:28:54.167Z,65.82
2018-12-18T11:31:23.047Z,65.89
2018-12-18T11:33:48.956Z,64.12
2018-12-18T11:36:17.898Z,63.65
2018-12-18T11:38:43.852Z,62.15
2018-12-18T11:41:09.743Z,60.89
2018-12-18T11:43:35.633Z,60.30
2018-12-18T11:46:01.560Z,60.04
2018-12-18T11:48:31.308Z,60.14
2018-12-18T11:50:57.199Z,60.71
2018-12-18T11:53:24.903Z,63.67
2018-12-18T11:55:50.787Z,63.82
2018-12-18T11:58:20.518Z,63.11
2018-12-18T12:00:46.931Z,62.00
2018-12-18T12:03:14.111Z,61.23
2018-12-18T12:05:39.947Z,60.96
2018-12-18T12:08:11.031Z,60.63
2018-12-18T12:10:36.880Z,61.58
2018-12-18T12:13:03.542Z,62.38
2018-12-18T12:15:29.482Z,62.20
2018-12-18T12:17:55.815Z,61.55
2018-12-18T12:20:21.764Z,62.44
2018-12-18T12:22:47.626Z,63.86
2018-12-18T12:25:15.809Z,63.41
2018-12-18T12:27:47.691Z,66.18
2018-12-18T12:30:13.581Z,65.63
2018-12-18T12:32:39.663Z,66.24
2018-12-18T12:35:05.725Z,66.59
2018-12-18T12:37:32.094Z,68.95
2018-12-18T12:39:59.734Z,69.72
2018-12-18T12:42:25.584Z,68.92
2018-12-18T12:44:55.509Z,69.03
2018-12-18T12:47:21.404Z,69.71
2018-12-18T12:49:49.110Z,69.28
2018-12-18T12:52:15.068Z,69.03
2018-12-18T12:54:40.960Z,68.44
2018-12-18T12:57:06.931Z,69.12
2018-12-18T12:59:32.842Z,68.93
2018-12-18T13:02:01.939Z,69.72
2018-12-18T13:04:28.300Z,70.15
2018-12-18T13:06:55.502Z,70.95
2018-12-18T13:11:53.598Z,69.30
2018-12-18T13:14:19.475Z,68.82
2018-12-18T13:16:45.374Z,68.28
2018-12-18T13:19:11.259Z,70.04
2018-12-18T13:21:40.402Z,68.97
2018-12-18T13:24:06.296Z,68.48
2018-12-18T13:26:35.266Z,68.58
2018-12-18T13:29:01.269Z,67.96
2018-12-18T13:31:27.272Z,68.19
2018-12-18T13:33:53.145Z,67.41
2018-12-18T13:36:18.999Z,65.95
2018-12-18T13:38:46.211Z,65.56
2018-12-18T13:41:12.115Z,65.84
2018-12-18T13:43:41.957Z,65.07
2018-12-18T13:46:07.877Z,65.45
2018-12-18T13:48:35.490Z,66.45
2018-12-18T13:51:01.436Z,64.95
2018-12-18T13:53:31.075Z,65.53
2018-12-18T13:55:56.979Z,65.71
2018-12-18T13:58:25.885Z,66.05
2018-12-18T14:00:51.771Z,65.68
2018-12-18T14:03:19.641Z,64.99
2018-12-18T14:05:45.541Z,64.55
2018-12-18T14:08:11.420Z,64.62
2018-12-18T14:10:37.311Z,65.13
2018-12-18T14:13:03.639Z,65.00
2018-12-18T14:15:31.791Z,63.76
2018-12-18T14:17:57.727Z,63.54
2018-12-18T14:20:26.823Z,63.61
2018-12-18T14:22:52.731Z,64.87
2018-12-18T14:25:20.511Z,65.14
2018-12-18T14:27:46.397Z,65.53
2018-12-18T14:30:16.093Z,65.20
2018-12-18T14:32:41.987Z,65.29
2018-12-18T14:35:11.020Z,65.55
2018-12-18T14:37:36.898Z,64.70
2018-12-18T14:40:09.867Z,65.68
2018-12-18T14:42:35.863Z,65.25
2018-12-18T14:45:01.926Z,66.86
2018-12-18T14:47:27.805Z,66.58
2018-12-18T14:49:53.855Z,67.45
2018-12-18T14:52:19.729Z,67.28
2018-12-18T14:54:45.783Z,67.93
2018-12-18T14:57:11.681Z,68.41
2018-12-18T14:59:37.687Z,68.67
2018-12-18T15:02:06.907Z,69.78
2018-12-18T15:04:32.746Z,70.47
2018-12-18T15:07:03.074Z,70.20
2018-12-18T15:09:28.621Z,70.51
2018-12-18T15:11:55.427Z,70.78
2018-12-18T15:14:22.258Z,70.91
2018-12-18T15:16:50.146Z,72.02
2018-12-18T15:19:16.029Z,72.86
2018-12-18T15:21:41.977Z,73.57
2018-12-18T15:24:07.948Z,74.03
2018-12-18T15:26:33.878Z,74.19
2018-12-18T15:29:03.261Z,74.94
2018-12-18T15:31:29.673Z,75.37
2018-12-18T15:33:56.917Z,74.58
2018-12-18T15:36:22.777Z,75.80
2018-12-18T15:38:53.482Z,76.68
2018-12-18T15:41:19.325Z,76.19
2018-12-18T15:43:46.262Z,77.02
2018-12-18T15:46:12.138Z,77.10
2018-12-18T15:48:41.831Z,77.04
2018-12-18T15:51:07.691Z,77.73
2018-12-18T15:53:35.573Z,77.10
2018-12-18T15:56:01.460Z,78.11
2018-12-18T15:58:27.296Z,77.56
2018-12-18T16:00:53.227Z,77.65
2018-12-18T16:03:19.128Z,77.35
2018-12-18T16:05:48.536Z,78.26
2018-12-18T16:08:16.057Z,78.83
2018-12-18T16:10:41.924Z,79.04
2018-12-18T16:13:07.827Z,78.97
2018-12-18T16:15:36.458Z,79.80
2018-12-18T16:18:02.407Z,79.59
2018-12-18T16:20:30.693Z,78.86
2018-12-18T16:22:56.602Z,78.96
2018-12-18T16:27:53.578Z,79.46
2018-12-18T16:30:20.812Z,79.42
2018-12-18T16:32:46.691Z,78.88
2018-12-18T16:35:12.554Z,79.09
2018-12-18T16:37:38.425Z,78.74
2018-12-18T16:40:11.407Z,79.34
2018-12-18T16:42:37.421Z,78.87
2018-12-18T16:45:03.977Z,78.65
2018-12-18T16:47:29.849Z,78.41
2018-12-18T16:49:55.735Z,78.20
2018-12-18T16:52:21.598Z,78.71
2018-12-18T16:54:47.541Z,78.46
2018-12-18T16:57:15.953Z,78.48
2018-12-18T16:59:41.826Z,78.36
2018-12-18T17:02:10.794Z,78.84
2018-12-18T17:04:36.784Z,79.22
2018-12-18T17:07:07.313Z,79.56
2018-12-18T17:09:33.272Z,80.06
2018-12-18T17:11:59.269Z,80.21
2018-12-18T17:14:25.198Z,79.77
2018-12-18T17:16:51.116Z,80.73
2018-12-18T17:19:18.870Z,80.55
2018-12-18T17:21:44.928Z,80.21
2018-12-18T17:24:12.215Z,80.29
2018-12-18T17:26:38.129Z,80.71
2018-12-18T17:29:06.642Z,80.83
2018-12-18T17:31:32.543Z,80.84
2018-12-18T17:34:01.265Z,80.87
2018-12-18T17:36:27.188Z,80.96
2018-12-18T17:38:55.935Z,80.81
2018-12-18T17:41:21.871Z,80.76
2018-12-18T17:43:50.938Z,81.05
2018-12-18T17:46:16.884Z,81.43
2018-12-18T17:48:42.810Z,81.49
2018-12-18T17:51:08.683Z,81.48
2018-12-18T17:53:34.586Z,80.73
2018-12-18T17:56:03.871Z,81.50
2018-12-18T17:58:30.852Z,81.42
2018-12-18T18:00:57.547Z,82.11
2018-12-18T18:03:23.449Z,82.00
2018-12-18T18:05:53.219Z,82.40
2018-12-18T18:08:19.153Z,82.70
2018-12-18T18:10:48.180Z,82.69
2018-12-18T18:13:14.185Z,83.06
2018-12-18T18:15:41.819Z,83.44
2018-12-18T18:18:07.707Z,83.37
2018-12-18T18:20:37.111Z,83.73
2018-12-18T18:23:03.032Z,83.84
2018-12-18T18:25:28.937Z,84.07
2018-12-18T18:27:55.183Z,84.04
2018-12-18T18:30:21.391Z,84.07
2018-12-18T18:32:48.052Z,83.94
2018-12-18T18:35:16.342Z,84.04
2018-12-18T18:37:49.432Z,84.03
2018-12-18T18:40:11.628Z,84.40
2018-12-18T18:42:37.529Z,84.74
2018-12-18T18:45:03.777Z,85.38
2018-12-18T18:47:32.595Z,85.42
2018-12-18T18:49:58.508Z,85.71
2018-12-18T18:52:27.392Z,85.91
2018-12-18T18:54:53.284Z,85.38
2018-12-18T18:57:23.150Z,85.36
2018-12-18T18:59:51.056Z,85.37
2018-12-18T19:02:16.948Z,85.33
2018-12-18T19:04:42.837Z,85.81
2018-12-18T19:07:08.809Z,85.26
2018-12-18T19:09:34.713Z,85.34
2018-12-18T19:12:00.908Z,84.88
2018-12-18T19:14:28.546Z,85.08
2018-12-18T19:16:54.410Z,85.39
2018-12-18T19:19:23.178Z,84.97
2018-12-18T19:21:50.892Z,85.38
2018-12-18T19:24:18.142Z,85.38
2018-12-18T19:26:44.032Z,85.75
2018-12-18T19:29:13.948Z,86.10
2018-12-18T19:31:40.799Z,86.92
2018-12-18T19:34:07.501Z,87.38
2018-12-18T19:36:33.773Z,88.16
2018-12-18T19:38:59.695Z,87.86
2018-12-18T19:41:25.609Z,87.71
2018-12-18T19:43:51.494Z,87.49
2018-12-18T19:46:19.248Z,86.93
2018-12-18T19:48:45.280Z,86.77
2018-12-18T19:51:15.273Z,86.72
2018-12-18T19:53:41.191Z,86.78
2018-12-18T19:56:08.927Z,86.86
2018-12-18T19:58:34.804Z,86.60
2018-12-18T20:01:04.028Z,86.47
2018-12-18T20:03:29.906Z,86.46
2018-12-18T20:05:59.339Z,86.55
2018-12-18T20:08:25.231Z,86.61
2018-12-18T20:10:52.625Z,86.28
2018-12-18T20:13:19.987Z,86.27
2018-12-18T20:15:45.985Z,85.93
2018-12-18T20:18:11.913Z,85.59
2018-12-18T20:20:37.794Z,85.58
2018-12-18T20:23:04.272Z,85.58
2018-12-18T20:25:30.145Z,85.63
2018-12-18T20:28:00.908Z,85.59
2018-12-18T20:30:36.478Z,85.62
2018-12-18T20:33:02.533Z,84.81
2018-12-18T20:35:28.387Z,84.60
2018-12-18T20:37:54.303Z,83.66
2018-12-18T20:40:20.171Z,83.87
2018-12-18T20:42:46.031Z,84.50
2018-12-18T20:45:12.109Z,83.90
2018-12-18T20:47:37.962Z,83.57
2018-12-18T20:50:05.127Z,83.50
2018-12-18T20:52:31.000Z,83.31
2018-12-18T20:54:56.863Z,83.71
2018-12-18T20:57:22.793Z,83.14
2018-12-18T20:59:49.574Z,83.10
2018-12-18T21:02:15.467Z,83.11
2018-12-18T21:04:44.208Z,83.31
2018-12-18T21:07:10.161Z,83.09
2018-12-18T21:09:39.073Z,83.14
2018-12-18T21:12:05.004Z,83.70
2018-12-18T21:14:33.918Z,84.02
2018-12-18T21:16:59.825Z,83.89
2018-12-18T21:19:28.269Z,84.00
2018-12-18T21:21:54.244Z,84.43
2018-12-18T21:24:23.343Z,84.86
2018-12-18T21:26:49.216Z,84.46
2018-12-18T21:29:15.142Z,84.39
2018-12-18T21:31:41.042Z,85.34
2018-12-18T21:34:07.702Z,85.05
2018-12-18T21:36:34.947Z,85.00
2018-12-18T21:39:00.825Z,85.14
2018-12-18T21:41:30.673Z,84.97
2018-12-18T21:43:56.556Z,84.91
2018-12-18T21:46:24.333Z,84.66
2018-12-18T21:48:50.212Z,84.63
2018-12-18T21:51:19.798Z,84.34
2018-12-18T21:53:45.828Z,84.16
2018-12-18T21:56:15.059Z,83.96
2018-12-18T21:58:40.953Z,84.03
2018-12-18T22:01:08.756Z,84.22
2018-12-18T22:03:34.695Z,84.30
2018-12-18T22:06:00.578Z,83.84
2018-12-18T22:08:26.468Z,84.51
2018-12-18T22:10:52.375Z,84.59
2018-12-18T22:13:21.436Z,84.55
2018-12-18T22:15:47.278Z,84.17
2018-12-18T22:18:15.209Z,84.25
2018-12-18T22:20:41.122Z,83.54
2018-12-18T22:23:10.511Z,83.96
2018-12-18T22:25:38.455Z,84.05
2018-12-18T22:28:05.006Z,84.02
2018-12-18T22:30:30.916Z,84.34
2018-12-18T22:33:00.449Z,84.08
2018-12-18T22:35:26.337Z,83.65
2018-12-18T22:37:54.140Z,83.64
2018-12-18T22:40:20.129Z,83.91
2018-12-18T22:42:46.021Z,83.39
2018-12-18T22:45:11.921Z,83.67
2018-12-18T22:47:37.925Z,83.32
2018-12-18T22:50:07.070Z,83.03
2018-12-18T22:52:32.999Z,83.33
2018-12-18T22:55:00.926Z,82.99
2018-12-18T22:57:28.168Z,82.99
2018-12-18T22:59:56.301Z,82.72
2018-12-18T23:02:22.271Z,82.48
2018-12-18T23:04:59.574Z,82.45
2018-12-18T23:07:25.697Z,82.86
2018-12-18T23:09:51.579Z,82.69
2018-12-18T23:12:17.481Z,83.41
2018-12-18T23:14:43.744Z,82.86
2018-12-18T23:17:09.640Z,83.25
2018-12-18T23:19:35.689Z,83.09
2018-12-18T23:22:01.577Z,83.34
2018-12-18T23:24:27.476Z,83.83
2018-12-18T23:26:53.331Z,83.67
2018-12-18T23:29:19.226Z,83.24
2018-12-18T23:31:46.143Z,83.55
2018-12-18T23:34:12.031Z,83.47
2018-12-18T23:36:43.114Z,83.71
2018-12-18T23:39:09.124Z,83.39
2018-12-18T23:41:36.566Z,83.23
2018-12-18T23:44:02.695Z,83.33
2018-12-18T23:46:30.205Z,82.58
2018-12-18T23:48:56.128Z,83.09
2018-12-18T23:51:25.858Z,82.11
2018-12-18T23:53:51.744Z,81.68
2018-12-18T23:56:17.634Z,81.73
2018-12-18T23:58:43.519Z,82.42
